sensor_id;sensor_type;location;lat;lon;timestamp;temperature;humidity
30047;DHT22;16878;52.542;13.426;2022-12-11T00:02:07;-0.20;99.90
30047;DHT22;16878;52.542;13.426;2022-12-11T00:04:33;-0.20;99.90
30047;DHT22;16878;52.542;13.426;2022-12-11T00:06:58;-0.20;99.90
30047;DHT22;16878;52.542;13.426;2022-12-11T00:09:24;-0.20;99.90
30047;DHT22;16878;52.542;13.426;2022-12-11T00:11:50;-0.20;99.90
30047;DHT22;16878;52.542;13.426;2022-12-11T00:14:15;-0.20;99.90
30047;DHT22;16878;52.542;13.426;2022-12-11T00:16:41;-0.20;99.90
30047;DHT22;16878;52.542;13.426;2022-12-11T00:19:06;-0.10;99.90
30047;DHT22;16878;52.542;13.426;2022-12-11T00:21:32;-0.20;99.90
30047;DHT22;16878;52.542;13.426;2022-12-11T00:23:57;-0.20;99.90
30047;DHT22;16878;52.542;13.426;2022-12-11T00:26:23;-0.10;99.90
30047;DHT22;16878;52.542;13.426;2022-12-11T00:28:51;-0.20;99.90
30047;DHT22;16878;52.542;13.426;2022-12-11T00:31:17;-0.10;99.90
30047;DHT22;16878;52.542;13.426;2022-12-11T00:33:43;-0.10;99.90
30047;DHT22;16878;52.542;13.426;2022-12-11T00:36:10;-0.10;99.90
30047;DHT22;16878;52.542;13.426;2022-12-11T00:38:36;-0.10;99.90
30047;DHT22;16878;52.542;13.426;2022-12-11T00:41:01;-0.10;99.90
30047;DHT22;16878;52.542;13.426;2022-12-11T00:43:27;-0.10;99.90
30047;DHT22;16878;52.542;13.426;2022-12-11T00:45:52;-0.20;99.90
30047;DHT22;16878;52.542;13.426;2022-12-11T00:48:18;-0.20;99.90
30047;DHT22;16878;52.542;13.426;2022-12-11T00:50:44;-0.20;99.90
30047;DHT22;16878;52.542;13.426;2022-12-11T00:53:12;-0.10;99.90
30047;DHT22;16878;52.542;13.426;2022-12-11T00:55:38;-0.10;99.90
30047;DHT22;16878;52.542;13.426;2022-12-11T00:58:04;-0.10;99.90
30047;DHT22;16878;52.542;13.426;2022-12-11T01:00:30;-0.10;99.90
30047;DHT22;16878;52.542;13.426;2022-12-11T01:02:55;-0.10;99.90
30047;DHT22;16878;52.542;13.426;2022-12-11T01:05:21;-0.10;99.90
30047;DHT22;16878;52.542;13.426;2022-12-11T01:07:47;-0.10;99.90
30047;DHT22;16878;52.542;13.426;2022-12-11T01:10:15;-0.10;99.90
30047;DHT22;16878;52.542;13.426;2022-12-11T01:15:18;-0.20;99.90
30047;DHT22;16878;52.542;13.426;2022-12-11T01:17:44;-0.20;99.90
30047;DHT22;16878;52.542;13.426;2022-12-11T01:20:10;-0.20;99.90
30047;DHT22;16878;52.542;13.426;2022-12-11T01:22:36;-0.20;99.90
30047;DHT22;16878;52.542;13.426;2022-12-11T01:25:01;-0.20;99.90
30047;DHT22;16878;52.542;13.426;2022-12-11T01:27:27;-0.20;99.90
30047;DHT22;16878;52.542;13.426;2022-12-11T01:29:53;-0.20;99.90
30047;DHT22;16878;52.542;13.426;2022-12-11T01:32:18;-0.20;99.90
30047;DHT22;16878;52.542;13.426;2022-12-11T01:34:44;-0.20;99.90
30047;DHT22;16878;52.542;13.426;2022-12-11T01:37:09;-0.20;99.90
30047;DHT22;16878;52.542;13.426;2022-12-11T01:39:35;-0.20;99.90
30047;DHT22;16878;52.542;13.426;2022-12-11T01:42:01;-0.20;99.90
30047;DHT22;16878;52.542;13.426;2022-12-11T01:46:52;-0.20;99.90
30047;DHT22;16878;52.542;13.426;2022-12-11T01:49:18;-0.20;99.90
30047;DHT22;16878;52.542;13.426;2022-12-11T01:51:46;-0.20;99.90
30047;DHT22;16878;52.542;13.426;2022-12-11T01:54:13;-0.20;99.90
30047;DHT22;16878;52.542;13.426;2022-12-11T01:56:40;-0.20;99.90
30047;DHT22;16878;52.542;13.426;2022-12-11T01:59:06;-0.20;99.90
30047;DHT22;16878;52.542;13.426;2022-12-11T02:01:37;-0.20;99.90
30047;DHT22;16878;52.542;13.426;2022-12-11T02:04:05;-0.20;99.90
30047;DHT22;16878;52.542;13.426;2022-12-11T02:06:37;-0.30;99.90
30047;DHT22;16878;52.542;13.426;2022-12-11T02:09:04;-0.30;99.90
30047;DHT22;16878;52.542;13.426;2022-12-11T02:11:34;-0.30;99.90
30047;DHT22;16878;52.542;13.426;2022-12-11T02:14:04;-0.30;99.90
30047;DHT22;16878;52.542;13.426;2022-12-11T02:16:38;-0.30;99.90
30047;DHT22;16878;52.542;13.426;2022-12-11T02:21:38;-0.20;99.90
30047;DHT22;16878;52.542;13.426;2022-12-11T02:28:57;-0.30;99.90
30047;DHT22;16878;52.542;13.426;2022-12-11T02:36:21;-0.30;99.90
30047;DHT22;16878;52.542;13.426;2022-12-11T02:38:48;-0.30;99.90
30047;DHT22;16878;52.542;13.426;2022-12-11T02:41:16;-0.30;99.90
30047;DHT22;16878;52.542;13.426;2022-12-11T02:43:46;-0.20;99.90
30047;DHT22;16878;52.542;13.426;2022-12-11T02:46:12;-0.30;99.90
30047;DHT22;16878;52.542;13.426;2022-12-11T02:48:38;-0.30;99.90
30047;DHT22;16878;52.542;13.426;2022-12-11T02:51:05;-0.30;99.90
30047;DHT22;16878;52.542;13.426;2022-12-11T02:53:32;-0.30;99.90
30047;DHT22;16878;52.542;13.426;2022-12-11T02:56:01;-0.30;99.90
30047;DHT22;16878;52.542;13.426;2022-12-11T02:58:29;-0.30;99.90
30047;DHT22;16878;52.542;13.426;2022-12-11T03:00:55;-0.20;99.90
30047;DHT22;16878;52.542;13.426;2022-12-11T03:03:21;-0.30;99.90
30047;DHT22;16878;52.542;13.426;2022-12-11T03:05:47;-0.30;99.90
30047;DHT22;16878;52.542;13.426;2022-12-11T03:08:12;-0.30;99.90
30047;DHT22;16878;52.542;13.426;2022-12-11T03:10:41;-0.30;99.90
30047;DHT22;16878;52.542;13.426;2022-12-11T03:13:07;-0.30;99.90
30047;DHT22;16878;52.542;13.426;2022-12-11T03:15:37;-0.30;99.90
30047;DHT22;16878;52.542;13.426;2022-12-11T03:25:31;-0.30;99.90
30047;DHT22;16878;52.542;13.426;2022-12-11T03:28:03;-0.30;99.90
30047;DHT22;16878;52.542;13.426;2022-12-11T03:30:31;-0.30;99.90
30047;DHT22;16878;52.542;13.426;2022-12-11T03:33:01;-0.30;99.90
30047;DHT22;16878;52.542;13.426;2022-12-11T03:35:32;-0.30;99.90
30047;DHT22;16878;52.542;13.426;2022-12-11T03:38:03;-0.30;99.90
30047;DHT22;16878;52.542;13.426;2022-12-11T03:40:30;-0.30;99.90
30047;DHT22;16878;52.542;13.426;2022-12-11T03:42:57;-0.30;99.90
30047;DHT22;16878;52.542;13.426;2022-12-11T03:45:24;-0.30;99.90
30047;DHT22;16878;52.542;13.426;2022-12-11T03:47:54;-0.30;99.90
30047;DHT22;16878;52.542;13.426;2022-12-11T03:50:20;-0.30;99.90
30047;DHT22;16878;52.542;13.426;2022-12-11T03:52:46;-0.40;99.90
30047;DHT22;16878;52.542;13.426;2022-12-11T03:55:13;-0.40;99.90
30047;DHT22;16878;52.542;13.426;2022-12-11T03:57:39;-0.40;99.90
30047;DHT22;16878;52.542;13.426;2022-12-11T04:00:05;-0.40;99.90
30047;DHT22;16878;52.542;13.426;2022-12-11T04:02:32;-0.40;99.90
30047;DHT22;16878;52.542;13.426;2022-12-11T04:04:57;-0.40;99.90
30047;DHT22;16878;52.542;13.426;2022-12-11T04:07:23;-0.40;99.90
30047;DHT22;16878;52.542;13.426;2022-12-11T04:09:48;-0.40;99.90
30047;DHT22;16878;52.542;13.426;2022-12-11T04:12:14;-0.40;99.90
30047;DHT22;16878;52.542;13.426;2022-12-11T04:14:43;-0.40;99.90
30047;DHT22;16878;52.542;13.426;2022-12-11T04:17:31;-0.40;99.90
30047;DHT22;16878;52.542;13.426;2022-12-11T04:20:16;-0.30;99.90
30047;DHT22;16878;52.542;13.426;2022-12-11T04:23:02;-0.30;99.90
30047;DHT22;16878;52.542;13.426;2022-12-11T04:25:46;-0.30;99.90
30047;DHT22;16878;52.542;13.426;2022-12-11T04:28:11;-0.30;99.90
30047;DHT22;16878;52.542;13.426;2022-12-11T04:30:37;-0.30;99.90
30047;DHT22;16878;52.542;13.426;2022-12-11T04:33:02;-0.30;99.90
30047;DHT22;16878;52.542;13.426;2022-12-11T04:35:28;-0.30;99.90
30047;DHT22;16878;52.542;13.426;2022-12-11T04:37:54;-0.30;99.90
30047;DHT22;16878;52.542;13.426;2022-12-11T04:40:19;-0.30;99.90
30047;DHT22;16878;52.542;13.426;2022-12-11T04:42:45;-0.30;99.90
30047;DHT22;16878;52.542;13.426;2022-12-11T04:45:11;-0.30;99.90
30047;DHT22;16878;52.542;13.426;2022-12-11T04:47:37;-0.30;99.90
30047;DHT22;16878;52.542;13.426;2022-12-11T04:50:03;-0.30;99.90
30047;DHT22;16878;52.542;13.426;2022-12-11T04:52:29;-0.30;99.90
30047;DHT22;16878;52.542;13.426;2022-12-11T04:54:54;-0.40;99.90
30047;DHT22;16878;52.542;13.426;2022-12-11T04:57:20;-0.40;99.90
30047;DHT22;16878;52.542;13.426;2022-12-11T04:59:49;-0.40;99.90
30047;DHT22;16878;52.542;13.426;2022-12-11T05:02:14;-0.40;99.90
30047;DHT22;16878;52.542;13.426;2022-12-11T05:04:40;-0.40;99.90
30047;DHT22;16878;52.542;13.426;2022-12-11T05:07:06;-0.40;99.90
30047;DHT22;16878;52.542;13.426;2022-12-11T05:09:33;-0.40;99.90
30047;DHT22;16878;52.542;13.426;2022-12-11T05:11:59;-0.40;99.90
30047;DHT22;16878;52.542;13.426;2022-12-11T05:14:24;-0.50;99.90
30047;DHT22;16878;52.542;13.426;2022-12-11T05:16:51;-0.50;99.90
30047;DHT22;16878;52.542;13.426;2022-12-11T05:19:17;-0.40;99.90
30047;DHT22;16878;52.542;13.426;2022-12-11T05:21:43;-0.40;99.90
30047;DHT22;16878;52.542;13.426;2022-12-11T05:24:08;-0.40;99.90
30047;DHT22;16878;52.542;13.426;2022-12-11T05:26:34;-0.40;99.90
30047;DHT22;16878;52.542;13.426;2022-12-11T05:28:59;-0.40;99.90
30047;DHT22;16878;52.542;13.426;2022-12-11T05:31:25;-0.40;99.90
30047;DHT22;16878;52.542;13.426;2022-12-11T05:33:51;-0.40;99.90
30047;DHT22;16878;52.542;13.426;2022-12-11T05:36:35;-0.40;99.90
30047;DHT22;16878;52.542;13.426;2022-12-11T05:39:02;-0.40;99.90
30047;DHT22;16878;52.542;13.426;2022-12-11T05:41:28;-0.40;99.90
30047;DHT22;16878;52.542;13.426;2022-12-11T05:43:54;-0.40;99.90
30047;DHT22;16878;52.542;13.426;2022-12-11T05:46:21;-0.40;99.90
30047;DHT22;16878;52.542;13.426;2022-12-11T05:48:48;-0.40;99.90
30047;DHT22;16878;52.542;13.426;2022-12-11T05:51:14;-0.40;99.90
30047;DHT22;16878;52.542;13.426;2022-12-11T05:53:40;-0.50;99.90
30047;DHT22;16878;52.542;13.426;2022-12-11T05:56:09;-0.50;99.90
30047;DHT22;16878;52.542;13.426;2022-12-11T05:58:35;-0.40;99.90
30047;DHT22;16878;52.542;13.426;2022-12-11T06:01:01;-0.40;99.90
30047;DHT22;16878;52.542;13.426;2022-12-11T06:03:27;-0.40;99.90
30047;DHT22;16878;52.542;13.426;2022-12-11T06:05:52;-0.40;99.90
30047;DHT22;16878;52.542;13.426;2022-12-11T06:08:18;-0.40;99.90
30047;DHT22;16878;52.542;13.426;2022-12-11T06:10:44;-0.40;99.90
30047;DHT22;16878;52.542;13.426;2022-12-11T06:13:10;-0.50;99.90
30047;DHT22;16878;52.542;13.426;2022-12-11T06:15:36;-0.50;99.90
30047;DHT22;16878;52.542;13.426;2022-12-11T06:18:01;-0.50;99.90
30047;DHT22;16878;52.542;13.426;2022-12-11T06:20:29;-0.50;99.90
30047;DHT22;16878;52.542;13.426;2022-12-11T06:22:55;-0.50;99.90
30047;DHT22;16878;52.542;13.426;2022-12-11T06:25:20;-0.50;99.90
30047;DHT22;16878;52.542;13.426;2022-12-11T06:27:46;-0.50;99.90
30047;DHT22;16878;52.542;13.426;2022-12-11T06:30:11;-0.50;99.90
30047;DHT22;16878;52.542;13.426;2022-12-11T06:32:37;-0.60;99.90
30047;DHT22;16878;52.542;13.426;2022-12-11T06:35:02;-0.50;99.90
30047;DHT22;16878;52.542;13.426;2022-12-11T06:37:28;-0.60;99.90
30047;DHT22;16878;52.542;13.426;2022-12-11T06:39:53;-0.60;99.90
30047;DHT22;16878;52.542;13.426;2022-12-11T06:42:19;-0.50;99.90
30047;DHT22;16878;52.542;13.426;2022-12-11T06:44:44;-0.60;99.90
30047;DHT22;16878;52.542;13.426;2022-12-11T06:47:10;-0.60;99.90
30047;DHT22;16878;52.542;13.426;2022-12-11T06:49:35;-0.60;99.90
30047;DHT22;16878;52.542;13.426;2022-12-11T06:52:01;-0.60;99.90
30047;DHT22;16878;52.542;13.426;2022-12-11T06:54:27;-0.50;99.90
30047;DHT22;16878;52.542;13.426;2022-12-11T06:56:52;-0.60;99.90
30047;DHT22;16878;52.542;13.426;2022-12-11T06:59:18;-0.60;99.90
30047;DHT22;16878;52.542;13.426;2022-12-11T07:01:43;-0.60;99.90
30047;DHT22;16878;52.542;13.426;2022-12-11T07:04:09;-0.60;99.90
30047;DHT22;16878;52.542;13.426;2022-12-11T07:06:35;-0.70;99.90
30047;DHT22;16878;52.542;13.426;2022-12-11T07:09:02;-0.70;99.90
30047;DHT22;16878;52.542;13.426;2022-12-11T07:11:28;-0.70;99.90
30047;DHT22;16878;52.542;13.426;2022-12-11T07:13:53;-0.80;99.90
30047;DHT22;16878;52.542;13.426;2022-12-11T07:16:19;-0.80;99.90
30047;DHT22;16878;52.542;13.426;2022-12-11T07:18:48;-0.80;99.90
30047;DHT22;16878;52.542;13.426;2022-12-11T07:21:14;-0.80;99.90
30047;DHT22;16878;52.542;13.426;2022-12-11T07:23:40;-0.80;99.90
30047;DHT22;16878;52.542;13.426;2022-12-11T07:26:07;-0.80;99.90
30047;DHT22;16878;52.542;13.426;2022-12-11T07:28:34;-0.80;99.90
30047;DHT22;16878;52.542;13.426;2022-12-11T07:31:09;-0.80;99.90
30047;DHT22;16878;52.542;13.426;2022-12-11T07:33:35;-0.90;99.90
30047;DHT22;16878;52.542;13.426;2022-12-11T07:36:01;-0.90;99.90
30047;DHT22;16878;52.542;13.426;2022-12-11T07:38:27;-0.90;99.90
30047;DHT22;16878;52.542;13.426;2022-12-11T07:40:53;-0.90;99.90
30047;DHT22;16878;52.542;13.426;2022-12-11T07:43:18;-0.90;99.90
30047;DHT22;16878;52.542;13.426;2022-12-11T07:45:47;-0.90;99.90
30047;DHT22;16878;52.542;13.426;2022-12-11T07:48:12;-0.90;99.90
30047;DHT22;16878;52.542;13.426;2022-12-11T07:50:38;-0.90;99.90
30047;DHT22;16878;52.542;13.426;2022-12-11T07:53:03;-0.90;99.90
30047;DHT22;16878;52.542;13.426;2022-12-11T07:55:29;-1.00;99.90
30047;DHT22;16878;52.542;13.426;2022-12-11T07:57:56;-0.90;99.90
30047;DHT22;16878;52.542;13.426;2022-12-11T08:00:22;-1.00;99.90
30047;DHT22;16878;52.542;13.426;2022-12-11T08:02:47;-1.00;99.90
30047;DHT22;16878;52.542;13.426;2022-12-11T08:05:13;-0.90;99.90
30047;DHT22;16878;52.542;13.426;2022-12-11T08:07:38;-0.90;99.90
30047;DHT22;16878;52.542;13.426;2022-12-11T08:10:04;-0.90;99.90
30047;DHT22;16878;52.542;13.426;2022-12-11T08:12:30;-0.90;99.90
30047;DHT22;16878;52.542;13.426;2022-12-11T08:14:55;-0.90;99.90
30047;DHT22;16878;52.542;13.426;2022-12-11T08:17:21;-0.90;99.90
30047;DHT22;16878;52.542;13.426;2022-12-11T08:19:46;-0.80;99.90
30047;DHT22;16878;52.542;13.426;2022-12-11T08:22:12;-0.80;99.90
30047;DHT22;16878;52.542;13.426;2022-12-11T08:24:40;-0.80;99.90
30047;DHT22;16878;52.542;13.426;2022-12-11T08:27:06;-0.90;99.90
30047;DHT22;16878;52.542;13.426;2022-12-11T08:29:31;-0.80;99.90
30047;DHT22;16878;52.542;13.426;2022-12-11T08:31:57;-0.80;99.90
30047;DHT22;16878;52.542;13.426;2022-12-11T08:34:22;-0.80;99.90
30047;DHT22;16878;52.542;13.426;2022-12-11T08:36:48;-0.70;99.90
30047;DHT22;16878;52.542;13.426;2022-12-11T08:39:13;-0.70;99.90
30047;DHT22;16878;52.542;13.426;2022-12-11T08:41:39;-0.60;99.90
30047;DHT22;16878;52.542;13.426;2022-12-11T08:44:08;-0.60;99.90
30047;DHT22;16878;52.542;13.426;2022-12-11T08:46:34;-0.60;99.90
30047;DHT22;16878;52.542;13.426;2022-12-11T08:49:00;-0.60;99.90
30047;DHT22;16878;52.542;13.426;2022-12-11T08:51:26;-0.60;99.90
30047;DHT22;16878;52.542;13.426;2022-12-11T08:53:54;-0.60;99.90
30047;DHT22;16878;52.542;13.426;2022-12-11T08:56:20;-0.60;99.90
30047;DHT22;16878;52.542;13.426;2022-12-11T08:58:48;-0.60;99.90
30047;DHT22;16878;52.542;13.426;2022-12-11T09:03:40;-0.50;99.90
30047;DHT22;16878;52.542;13.426;2022-12-11T09:06:06;-0.50;99.90
30047;DHT22;16878;52.542;13.426;2022-12-11T09:08:32;-0.50;99.90
30047;DHT22;16878;52.542;13.426;2022-12-11T09:11:01;-0.50;99.90
30047;DHT22;16878;52.542;13.426;2022-12-11T09:13:26;-0.50;99.90
30047;DHT22;16878;52.542;13.426;2022-12-11T09:15:52;-0.50;99.90
30047;DHT22;16878;52.542;13.426;2022-12-11T09:18:17;-0.50;99.90
30047;DHT22;16878;52.542;13.426;2022-12-11T09:20:43;-0.40;99.90
30047;DHT22;16878;52.542;13.426;2022-12-11T09:23:08;-0.50;99.90
30047;DHT22;16878;52.542;13.426;2022-12-11T09:25:38;-0.50;99.90
30047;DHT22;16878;52.542;13.426;2022-12-11T09:28:03;-0.40;99.90
30047;DHT22;16878;52.542;13.426;2022-12-11T09:30:29;-0.50;99.90
30047;DHT22;16878;52.542;13.426;2022-12-11T09:32:55;-0.50;99.90
30047;DHT22;16878;52.542;13.426;2022-12-11T09:35:20;-0.40;99.90
30047;DHT22;16878;52.542;13.426;2022-12-11T09:37:46;-0.40;99.90
30047;DHT22;16878;52.542;13.426;2022-12-11T09:40:11;-0.30;99.90
30047;DHT22;16878;52.542;13.426;2022-12-11T09:45:09;-0.30;99.90
30047;DHT22;16878;52.542;13.426;2022-12-11T09:47:39;-0.30;99.90
30047;DHT22;16878;52.542;13.426;2022-12-11T09:52:36;-0.30;99.90
30047;DHT22;16878;52.542;13.426;2022-12-11T09:55:09;-0.40;99.90
30047;DHT22;16878;52.542;13.426;2022-12-11T10:00:13;-0.40;99.90
30047;DHT22;16878;52.542;13.426;2022-12-11T10:02:54;-0.40;99.90
30047;DHT22;16878;52.542;13.426;2022-12-11T10:05:26;-0.40;99.90
30047;DHT22;16878;52.542;13.426;2022-12-11T10:08:05;-0.40;99.90
30047;DHT22;16878;52.542;13.426;2022-12-11T10:11:03;-0.40;99.90
30047;DHT22;16878;52.542;13.426;2022-12-11T10:16:31;-0.40;99.90
30047;DHT22;16878;52.542;13.426;2022-12-11T10:18:54;-0.40;99.90
30047;DHT22;16878;52.542;13.426;2022-12-11T10:21:20;-0.40;99.90
30047;DHT22;16878;52.542;13.426;2022-12-11T10:23:50;-0.40;99.90
30047;DHT22;16878;52.542;13.426;2022-12-11T10:26:21;-0.50;99.90
30047;DHT22;16878;52.542;13.426;2022-12-11T10:28:47;-0.50;99.90
30047;DHT22;16878;52.542;13.426;2022-12-11T10:36:31;-0.60;99.90
30047;DHT22;16878;52.542;13.426;2022-12-11T10:38:58;-0.60;99.90
30047;DHT22;16878;52.542;13.426;2022-12-11T10:41:37;-0.60;99.90
30047;DHT22;16878;52.542;13.426;2022-12-11T10:44:19;-0.60;99.90
30047;DHT22;16878;52.542;13.426;2022-12-11T10:46:46;-0.60;99.90
30047;DHT22;16878;52.542;13.426;2022-12-11T10:49:25;-0.60;99.90
30047;DHT22;16878;52.542;13.426;2022-12-11T10:51:53;-0.60;99.90
30047;DHT22;16878;52.542;13.426;2022-12-11T10:54:40;-0.60;99.90
30047;DHT22;16878;52.542;13.426;2022-12-11T10:57:08;-0.60;99.90
30047;DHT22;16878;52.542;13.426;2022-12-11T10:59:48;-0.60;99.90
30047;DHT22;16878;52.542;13.426;2022-12-11T11:02:18;-0.50;99.90
30047;DHT22;16878;52.542;13.426;2022-12-11T11:04:45;-0.40;99.90
30047;DHT22;16878;52.542;13.426;2022-12-11T11:07:19;-0.40;99.90
30047;DHT22;16878;52.542;13.426;2022-12-11T11:09:44;-0.30;99.90
30047;DHT22;16878;52.542;13.426;2022-12-11T11:14:41;-0.30;99.90
30047;DHT22;16878;52.542;13.426;2022-12-11T11:17:14;-0.30;99.90
30047;DHT22;16878;52.542;13.426;2022-12-11T11:19:40;-0.30;99.90
30047;DHT22;16878;52.542;13.426;2022-12-11T11:22:06;-0.30;99.90
30047;DHT22;16878;52.542;13.426;2022-12-11T11:24:37;-0.30;99.90
30047;DHT22;16878;52.542;13.426;2022-12-11T11:29:47;-0.20;99.90
30047;DHT22;16878;52.542;13.426;2022-12-11T11:32:18;-0.20;99.90
30047;DHT22;16878;52.542;13.426;2022-12-11T11:34:44;-0.20;99.90
30047;DHT22;16878;52.542;13.426;2022-12-11T11:39:52;-0.30;99.90
30047;DHT22;16878;52.542;13.426;2022-12-11T11:42:24;-0.30;99.90
30047;DHT22;16878;52.542;13.426;2022-12-11T11:45:02;-0.30;99.90
30047;DHT22;16878;52.542;13.426;2022-12-11T11:50:34;-0.20;99.90
30047;DHT22;16878;52.542;13.426;2022-12-11T11:53:04;-0.20;99.90
30047;DHT22;16878;52.542;13.426;2022-12-11T11:58:17;-0.10;99.90
30047;DHT22;16878;52.542;13.426;2022-12-11T12:00:47;-0.10;99.90
30047;DHT22;16878;52.542;13.426;2022-12-11T12:03:17;-0.10;99.90
30047;DHT22;16878;52.542;13.426;2022-12-11T12:05:54;-0.10;99.90
30047;DHT22;16878;52.542;13.426;2022-12-11T12:10:52;-0.10;99.90
30047;DHT22;16878;52.542;13.426;2022-12-11T12:13:23;-0.10;99.90
30047;DHT22;16878;52.542;13.426;2022-12-11T12:15:57;0.00;99.90
30047;DHT22;16878;52.542;13.426;2022-12-11T12:18:39;0.00;99.90
30047;DHT22;16878;52.542;13.426;2022-12-11T12:21:23;-0.10;99.90
30047;DHT22;16878;52.542;13.426;2022-12-11T12:26:36;-0.10;99.90
30047;DHT22;16878;52.542;13.426;2022-12-11T12:36:57;0.00;99.90
30047;DHT22;16878;52.542;13.426;2022-12-11T12:42:12;0.10;99.90
30047;DHT22;16878;52.542;13.426;2022-12-11T12:44:52;0.10;99.90
30047;DHT22;16878;52.542;13.426;2022-12-11T12:47:22;0.10;99.90
30047;DHT22;16878;52.542;13.426;2022-12-11T12:49:49;0.10;99.90
30047;DHT22;16878;52.542;13.426;2022-12-11T12:54:56;0.00;99.90
30047;DHT22;16878;52.542;13.426;2022-12-11T12:57:38;0.00;99.90
30047;DHT22;16878;52.542;13.426;2022-12-11T13:00:06;0.00;99.90
30047;DHT22;16878;52.542;13.426;2022-12-11T13:02:32;0.10;99.90
30047;DHT22;16878;52.542;13.426;2022-12-11T13:05:05;0.10;99.90
30047;DHT22;16878;52.542;13.426;2022-12-11T13:07:40;0.10;99.90
30047;DHT22;16878;52.542;13.426;2022-12-11T13:12:57;0.10;99.90
30047;DHT22;16878;52.542;13.426;2022-12-11T13:15:28;0.10;99.90
30047;DHT22;16878;52.542;13.426;2022-12-11T13:17:54;0.00;99.90
30047;DHT22;16878;52.542;13.426;2022-12-11T13:20:21;0.00;99.90
30047;DHT22;16878;52.542;13.426;2022-12-11T13:25:31;0.00;99.90
30047;DHT22;16878;52.542;13.426;2022-12-11T13:28:18;0.00;99.90
30047;DHT22;16878;52.542;13.426;2022-12-11T13:30:44;0.00;99.90
30047;DHT22;16878;52.542;13.426;2022-12-11T13:33:20;0.00;99.90
30047;DHT22;16878;52.542;13.426;2022-12-11T13:35:47;0.00;99.90
30047;DHT22;16878;52.542;13.426;2022-12-11T13:38:17;0.00;99.90
30047;DHT22;16878;52.542;13.426;2022-12-11T13:40:43;0.00;99.90
30047;DHT22;16878;52.542;13.426;2022-12-11T13:43:17;0.00;99.90
30047;DHT22;16878;52.542;13.426;2022-12-11T13:45:46;0.00;99.90
30047;DHT22;16878;52.542;13.426;2022-12-11T13:48:23;0.00;99.90
30047;DHT22;16878;52.542;13.426;2022-12-11T13:50:51;0.00;99.90
30047;DHT22;16878;52.542;13.426;2022-12-11T13:53:18;0.00;99.90
30047;DHT22;16878;52.542;13.426;2022-12-11T13:55:43;0.00;99.90
30047;DHT22;16878;52.542;13.426;2022-12-11T13:58:17;0.00;99.90
30047;DHT22;16878;52.542;13.426;2022-12-11T14:00:50;0.00;99.90
30047;DHT22;16878;52.542;13.426;2022-12-11T14:03:17;-0.10;99.90
30047;DHT22;16878;52.542;13.426;2022-12-11T14:05:43;-0.10;99.90
30047;DHT22;16878;52.542;13.426;2022-12-11T14:08:09;-0.10;99.90
30047;DHT22;16878;52.542;13.426;2022-12-11T14:10:35;-0.10;99.90
30047;DHT22;16878;52.542;13.426;2022-12-11T14:13:02;-0.10;99.90
30047;DHT22;16878;52.542;13.426;2022-12-11T14:15:29;-0.10;99.90
30047;DHT22;16878;52.542;13.426;2022-12-11T14:17:55;-0.20;99.90
30047;DHT22;16878;52.542;13.426;2022-12-11T14:20:22;-0.20;99.90
30047;DHT22;16878;52.542;13.426;2022-12-11T14:22:48;-0.20;99.90
30047;DHT22;16878;52.542;13.426;2022-12-11T14:25:19;-0.20;99.90
30047;DHT22;16878;52.542;13.426;2022-12-11T14:27:47;-0.20;99.90
30047;DHT22;16878;52.542;13.426;2022-12-11T14:30:18;-0.20;99.90
30047;DHT22;16878;52.542;13.426;2022-12-11T14:32:44;-0.20;99.90
30047;DHT22;16878;52.542;13.426;2022-12-11T14:35:17;-0.20;99.90
30047;DHT22;16878;52.542;13.426;2022-12-11T14:37:45;-0.20;99.90
30047;DHT22;16878;52.542;13.426;2022-12-11T14:40:15;-0.20;99.90
30047;DHT22;16878;52.542;13.426;2022-12-11T14:42:43;-0.30;99.90
30047;DHT22;16878;52.542;13.426;2022-12-11T14:45:17;-0.20;99.90
30047;DHT22;16878;52.542;13.426;2022-12-11T14:47:44;-0.30;99.90
30047;DHT22;16878;52.542;13.426;2022-12-11T14:50:16;-0.30;99.90
30047;DHT22;16878;52.542;13.426;2022-12-11T14:52:45;-0.20;99.90
30047;DHT22;16878;52.542;13.426;2022-12-11T14:57:38;-0.30;99.90
30047;DHT22;16878;52.542;13.426;2022-12-11T15:00:04;-0.30;99.90
30047;DHT22;16878;52.542;13.426;2022-12-11T15:02:34;-0.30;99.90
30047;DHT22;16878;52.542;13.426;2022-12-11T15:07:31;-0.20;99.90
30047;DHT22;16878;52.542;13.426;2022-12-11T15:09:57;-0.20;99.90
30047;DHT22;16878;52.542;13.426;2022-12-11T15:12:23;-0.20;99.90
30047;DHT22;16878;52.542;13.426;2022-12-11T15:14:59;-0.20;99.90
30047;DHT22;16878;52.542;13.426;2022-12-11T15:17:27;-0.20;99.90
30047;DHT22;16878;52.542;13.426;2022-12-11T15:20:00;-0.20;99.90
30047;DHT22;16878;52.542;13.426;2022-12-11T15:22:27;-0.20;99.90
30047;DHT22;16878;52.542;13.426;2022-12-11T15:24:53;-0.10;99.90
30047;DHT22;16878;52.542;13.426;2022-12-11T15:29:45;-0.20;99.90
30047;DHT22;16878;52.542;13.426;2022-12-11T15:34:45;-0.20;99.90
30047;DHT22;16878;52.542;13.426;2022-12-11T15:37:22;-0.10;99.90
30047;DHT22;16878;52.542;13.426;2022-12-11T15:39:49;-0.20;99.90
30047;DHT22;16878;52.542;13.426;2022-12-11T15:42:15;-0.20;99.90
30047;DHT22;16878;52.542;13.426;2022-12-11T15:44:42;-0.20;99.90
30047;DHT22;16878;52.542;13.426;2022-12-11T15:47:15;-0.20;99.90
30047;DHT22;16878;52.542;13.426;2022-12-11T15:49:42;-0.20;99.90
30047;DHT22;16878;52.542;13.426;2022-12-11T15:52:07;-0.10;99.90
30047;DHT22;16878;52.542;13.426;2022-12-11T15:54:33;-0.10;99.90
30047;DHT22;16878;52.542;13.426;2022-12-11T15:56:59;-0.20;99.90
30047;DHT22;16878;52.542;13.426;2022-12-11T15:59:26;-0.20;99.90
30047;DHT22;16878;52.542;13.426;2022-12-11T16:01:52;-0.20;99.90
30047;DHT22;16878;52.542;13.426;2022-12-11T16:04:17;-0.20;99.90
30047;DHT22;16878;52.542;13.426;2022-12-11T16:06:43;-0.30;99.90
30047;DHT22;16878;52.542;13.426;2022-12-11T16:09:09;-0.30;99.90
30047;DHT22;16878;52.542;13.426;2022-12-11T16:11:35;-0.30;99.90
30047;DHT22;16878;52.542;13.426;2022-12-11T16:14:00;-0.40;99.90
30047;DHT22;16878;52.542;13.426;2022-12-11T16:16:29;-0.40;99.90
30047;DHT22;16878;52.542;13.426;2022-12-11T16:18:54;-0.30;99.90
30047;DHT22;16878;52.542;13.426;2022-12-11T16:21:20;-0.30;99.90
30047;DHT22;16878;52.542;13.426;2022-12-11T16:23:45;-0.30;99.90
30047;DHT22;16878;52.542;13.426;2022-12-11T16:26:11;-0.30;99.90
30047;DHT22;16878;52.542;13.426;2022-12-11T16:28:38;-0.30;99.90
30047;DHT22;16878;52.542;13.426;2022-12-11T16:31:08;-0.30;99.90
30047;DHT22;16878;52.542;13.426;2022-12-11T16:33:34;-0.30;99.90
30047;DHT22;16878;52.542;13.426;2022-12-11T16:35:59;-0.30;99.90
30047;DHT22;16878;52.542;13.426;2022-12-11T16:38:25;-0.30;99.90
30047;DHT22;16878;52.542;13.426;2022-12-11T16:41:01;-0.30;99.90
30047;DHT22;16878;52.542;13.426;2022-12-11T16:43:27;-0.30;99.90
30047;DHT22;16878;52.542;13.426;2022-12-11T16:45:55;-0.30;99.90
30047;DHT22;16878;52.542;13.426;2022-12-11T16:48:21;-0.30;99.90
30047;DHT22;16878;52.542;13.426;2022-12-11T16:50:46;-0.20;99.90
30047;DHT22;16878;52.542;13.426;2022-12-11T16:53:12;-0.20;99.90